createdAt,value
2023-05-15T00:00:44.460Z,14.80
2023-05-15T00:01:46.553Z,14.80
2023-05-15T00:02:49.676Z,14.90
2023-05-15T00:03:52.273Z,14.90
2023-05-15T00:04:54.374Z,14.90
2023-05-15T00:05:57.069Z,14.90
2023-05-15T00:06:59.301Z,14.90
2023-05-15T00:08:01.134Z,14.90
2023-05-15T00:09:03.017Z,14.90
2023-05-15T00:10:05.109Z,14.90
2023-05-15T00:11:07.017Z,14.90
2023-05-15T00:12:09.426Z,14.90
2023-05-15T00:13:11.157Z,14.90
2023-05-15T00:14:13.053Z,14.90
2023-05-15T00:15:14.865Z,14.90
2023-05-15T00:16:18.628Z,14.90
2023-05-15T00:17:20.647Z,14.90
2023-05-15T00:18:22.331Z,14.90
2023-05-15T00:19:24.201Z,14.90
2023-05-15T00:20:25.894Z,14.90
2023-05-15T00:21:27.624Z,14.90
2023-05-15T00:22:29.472Z,15.00
2023-05-15T00:23:31.317Z,15.00
2023-05-15T00:24:33.965Z,15.00
2023-05-15T00:25:35.799Z,15.00
2023-05-15T00:26:37.523Z,15.00
2023-05-15T00:27:39.602Z,15.00
2023-05-15T00:28:41.706Z,15.00
2023-05-15T00:29:43.766Z,15.00
2023-05-15T00:30:45.550Z,15.00
2023-05-15T00:31:47.649Z,15.00
2023-05-15T00:32:49.510Z,15.00
2023-05-15T00:33:51.588Z,15.00
2023-05-15T00:34:53.424Z,15.00
2023-05-15T00:35:55.575Z,15.00
2023-05-15T00:36:57.482Z,15.00
2023-05-15T00:37:59.158Z,15.00
2023-05-15T00:39:01.077Z,15.00
2023-05-15T00:40:02.866Z,15.20
2023-05-15T00:41:07.223Z,15.00
2023-05-15T00:42:09.897Z,15.10
2023-05-15T00:43:12.235Z,15.10
2023-05-15T00:44:16.807Z,15.10
2023-05-15T00:45:20.081Z,15.10
2023-05-15T00:46:23.013Z,15.10
2023-05-15T00:47:26.610Z,15.10
2023-05-15T00:48:29.496Z,15.10
2023-05-15T00:49:35.383Z,15.10
2023-05-15T00:50:38.291Z,15.00
2023-05-15T00:51:43.340Z,15.00
2023-05-15T00:52:46.844Z,15.00
2023-05-15T00:54:00.951Z,15.00
2023-05-15T00:55:03.804Z,15.00
2023-05-15T00:56:07.178Z,15.00
2023-05-15T00:57:09.781Z,15.00
2023-05-15T00:58:12.377Z,15.00
2023-05-15T00:59:15.758Z,15.00
2023-05-15T01:00:18.788Z,15.00
2023-05-15T01:01:20.820Z,15.00
2023-05-15T01:02:22.978Z,15.00
2023-05-15T01:03:25.106Z,15.00
2023-05-15T01:04:26.855Z,15.00
2023-05-15T01:05:29.122Z,15.00
2023-05-15T01:06:31.845Z,15.00
2023-05-15T01:07:37.153Z,15.00
2023-05-15T01:08:42.798Z,15.00
2023-05-15T01:09:45.872Z,15.00
2023-05-15T01:10:50.181Z,15.00
2023-05-15T01:11:55.242Z,15.00
2023-05-15T01:12:58.310Z,15.00
2023-05-15T01:14:00.442Z,15.00
2023-05-15T01:15:02.311Z,15.00
2023-05-15T01:16:10.511Z,15.00
2023-05-15T01:17:12.189Z,15.00
2023-05-15T01:18:13.943Z,15.00
2023-05-15T01:19:16.202Z,15.00
2023-05-15T01:20:21.116Z,15.00
2023-05-15T01:21:35.175Z,15.00
2023-05-15T01:23:03.701Z,15.00
2023-05-15T01:24:29.517Z,15.00
2023-05-15T01:26:14.653Z,15.00
2023-05-15T01:27:40.034Z,15.00
2023-05-15T01:28:48.462Z,15.00
2023-05-15T01:30:13.122Z,14.90
2023-05-15T01:31:20.170Z,14.90
2023-05-15T01:32:34.318Z,14.90
2023-05-15T01:33:41.228Z,14.90
2023-05-15T01:34:57.429Z,14.90
2023-05-15T01:36:12.982Z,15.00
2023-05-15T01:37:20.849Z,14.90
2023-05-15T01:38:50.528Z,14.90
2023-05-15T01:40:00.908Z,14.90
2023-05-15T01:41:24.804Z,14.80
2023-05-15T01:42:33.679Z,14.80
2023-05-15T01:43:37.161Z,14.90
2023-05-15T01:44:54.781Z,14.80
2023-05-15T01:45:58.168Z,14.80
2023-05-15T01:47:06.842Z,14.90
2023-05-15T01:48:09.334Z,14.90
2023-05-15T01:49:14.404Z,14.90
2023-05-15T01:50:19.109Z,14.90
2023-05-15T01:51:22.686Z,14.90
2023-05-15T01:52:32.680Z,14.90
2023-05-15T01:53:36.405Z,14.90
2023-05-15T01:54:40.517Z,14.90
2023-05-15T01:55:45.582Z,14.90
2023-05-15T01:56:48.117Z,15.00
2023-05-15T01:57:52.758Z,15.00
2023-05-15T01:58:55.524Z,15.00
2023-05-15T01:59:58.711Z,15.00
2023-05-15T02:01:01.489Z,15.00
2023-05-15T02:02:05.376Z,15.00
2023-05-15T02:03:07.457Z,15.00
2023-05-15T02:04:11.332Z,15.00
2023-05-15T02:05:14.594Z,15.00
2023-05-15T02:06:16.676Z,14.90
2023-05-15T02:07:18.464Z,14.90
2023-05-15T02:08:21.726Z,14.90
2023-05-15T02:09:25.211Z,14.90
2023-05-15T02:10:28.096Z,14.90
2023-05-15T02:11:29.822Z,14.80
2023-05-15T02:12:32.857Z,14.80
2023-05-15T02:13:35.905Z,14.80
2023-05-15T02:14:41.017Z,14.70
2023-05-15T02:15:47.497Z,14.70
2023-05-15T02:16:52.685Z,14.70
2023-05-15T02:17:54.481Z,14.70
2023-05-15T02:18:56.423Z,14.70
2023-05-15T02:19:58.172Z,14.70
2023-05-15T02:21:03.072Z,14.70
2023-05-15T02:22:06.444Z,14.70
2023-05-15T02:23:08.122Z,14.70
2023-05-15T02:24:09.904Z,14.70
2023-05-15T02:25:11.578Z,14.70
2023-05-15T02:26:21.537Z,14.70
2023-05-15T02:27:27.869Z,14.70
2023-05-15T02:28:37.155Z,14.70
2023-05-15T02:30:13.248Z,14.70
2023-05-15T02:31:28.789Z,14.70
2023-05-15T02:32:50.678Z,14.70
2023-05-15T02:34:13.252Z,14.70
2023-05-15T02:35:33.105Z,14.70
2023-05-15T02:36:40.515Z,14.70
2023-05-15T02:37:46.339Z,14.70
2023-05-15T02:38:52.078Z,14.70
2023-05-15T02:39:57.035Z,14.70
2023-05-15T02:41:00.765Z,14.70
2023-05-15T02:42:03.050Z,14.60
2023-05-15T02:43:05.927Z,14.70
2023-05-15T02:44:08.774Z,14.70
2023-05-15T02:45:11.666Z,14.60
2023-05-15T02:46:14.782Z,14.60
2023-05-15T02:47:17.516Z,14.60
2023-05-15T02:48:19.690Z,14.60
2023-05-15T02:49:22.497Z,14.60
2023-05-15T02:50:24.599Z,14.60
2023-05-15T02:51:26.578Z,14.70
2023-05-15T02:52:28.322Z,14.70
2023-05-15T02:53:31.714Z,14.70
2023-05-15T02:54:33.422Z,14.70
2023-05-15T02:55:36.266Z,14.70
2023-05-15T02:56:38.015Z,14.80
2023-05-15T02:57:39.726Z,14.80
2023-05-15T02:58:41.919Z,14.80
2023-05-15T02:59:43.755Z,14.80
2023-05-15T03:00:45.463Z,14.80
2023-05-15T03:01:48.022Z,14.80
2023-05-15T03:02:49.713Z,14.80
2023-05-15T03:03:51.613Z,14.80
2023-05-15T03:04:54.402Z,14.80
2023-05-15T03:05:56.229Z,14.80
2023-05-15T03:07:00.656Z,14.80
2023-05-15T03:08:02.415Z,14.80
2023-05-15T03:09:04.303Z,14.90
2023-05-15T03:10:06.965Z,14.90
2023-05-15T03:11:08.719Z,14.90
2023-05-15T03:12:11.342Z,14.90
2023-05-15T03:13:13.125Z,14.90
2023-05-15T03:14:14.783Z,14.90
2023-05-15T03:15:16.734Z,14.90
2023-05-15T03:16:20.897Z,14.90
2023-05-15T03:17:22.708Z,14.90
2023-05-15T03:18:24.608Z,14.80
2023-05-15T03:19:26.672Z,14.80
2023-05-15T03:20:28.488Z,14.80
2023-05-15T03:21:30.420Z,14.80
2023-05-15T03:22:32.466Z,14.70
2023-05-15T03:23:36.425Z,14.80
2023-05-15T03:24:39.463Z,14.80
2023-05-15T03:25:41.245Z,14.80
2023-05-15T03:26:44.100Z,14.80
2023-05-15T03:27:45.862Z,14.90
2023-05-15T03:28:47.640Z,14.80
2023-05-15T03:29:50.944Z,14.80
2023-05-15T03:30:52.755Z,14.80
2023-05-15T03:31:54.490Z,14.80
2023-05-15T03:32:57.576Z,14.90
2023-05-15T03:33:59.434Z,14.80
2023-05-15T03:35:01.260Z,14.80
2023-05-15T03:36:02.984Z,14.80
2023-05-15T03:37:04.772Z,14.80
2023-05-15T03:38:06.440Z,14.80
2023-05-15T03:39:08.332Z,14.80
2023-05-15T03:40:10.398Z,14.80
2023-05-15T03:41:12.049Z,14.80
2023-05-15T03:42:13.980Z,14.80
2023-05-15T03:43:19.460Z,14.80
2023-05-15T03:44:22.001Z,14.90
2023-05-15T03:45:24.197Z,14.80
2023-05-15T03:46:26.421Z,14.90
2023-05-15T03:47:28.912Z,14.90
2023-05-15T03:48:30.772Z,14.90
2023-05-15T03:49:34.390Z,14.90
2023-05-15T03:50:38.504Z,15.00
2023-05-15T03:51:40.334Z,15.10
2023-05-15T03:52:42.421Z,15.00
2023-05-15T03:53:44.193Z,15.00
2023-05-15T03:54:45.866Z,15.00
2023-05-15T03:55:47.749Z,15.00
2023-05-15T03:56:49.501Z,15.00
2023-05-15T03:57:52.876Z,15.00
2023-05-15T03:58:54.826Z,15.00
2023-05-15T03:59:56.851Z,15.00
2023-05-15T04:00:58.705Z,15.00
2023-05-15T04:02:04.806Z,15.00
2023-05-15T04:03:09.447Z,15.00
2023-05-15T04:04:11.263Z,15.00
2023-05-15T04:05:12.991Z,15.00
2023-05-15T04:06:14.684Z,15.00
2023-05-15T04:07:16.517Z,15.00
2023-05-15T04:08:18.750Z,15.00
2023-05-15T04:09:20.804Z,15.00
2023-05-15T04:10:29.504Z,15.00
2023-05-15T04:11:31.791Z,15.10
2023-05-15T04:12:35.172Z,15.00
2023-05-15T04:13:37.254Z,15.00
2023-05-15T04:14:38.957Z,15.10
2023-05-15T04:15:41.063Z,15.10
2023-05-15T04:16:43.120Z,15.10
2023-05-15T04:17:46.425Z,15.10
2023-05-15T04:18:48.466Z,15.10
2023-05-15T04:19:50.239Z,15.10
2023-05-15T04:20:52.789Z,15.10
2023-05-15T04:21:54.465Z,15.10
2023-05-15T04:22:56.453Z,15.10
2023-05-15T04:23:58.107Z,15.10
2023-05-15T04:24:59.762Z,15.10
2023-05-15T04:26:01.474Z,15.10
2023-05-15T04:27:03.276Z,15.10
2023-05-15T04:28:05.234Z,15.10
2023-05-15T04:29:09.573Z,15.10
2023-05-15T04:30:12.755Z,15.10
2023-05-15T04:31:14.727Z,15.10
2023-05-15T04:32:16.598Z,15.10
2023-05-15T04:33:18.458Z,15.10
2023-05-15T04:34:21.446Z,15.10
2023-05-15T04:35:23.292Z,15.10
2023-05-15T04:36:25.839Z,15.20
2023-05-15T04:37:28.274Z,15.20
2023-05-15T04:38:30.164Z,15.20
2023-05-15T04:39:31.870Z,15.30
2023-05-15T04:40:33.679Z,15.30
2023-05-15T04:41:35.808Z,15.30
2023-05-15T04:42:39.219Z,15.30
2023-05-15T04:43:41.497Z,15.30
2023-05-15T04:44:44.779Z,15.40
2023-05-15T04:45:47.237Z,15.40
2023-05-15T04:46:49.028Z,15.40
2023-05-15T04:47:51.318Z,15.40
2023-05-15T04:48:53.457Z,15.40
2023-05-15T04:49:55.138Z,15.40
2023-05-15T04:50:57.186Z,15.40
2023-05-15T04:51:58.849Z,15.40
2023-05-15T04:53:00.734Z,15.40
2023-05-15T04:54:02.500Z,15.50
2023-05-15T04:55:04.602Z,15.50
2023-05-15T04:56:07.786Z,15.50
2023-05-15T04:57:09.575Z,15.60
2023-05-15T04:58:11.288Z,15.60
2023-05-15T04:59:13.486Z,15.60
2023-05-15T05:00:16.005Z,15.60
2023-05-15T05:01:17.896Z,15.60
2023-05-15T05:02:23.847Z,15.60
2023-05-15T05:03:25.730Z,15.60
2023-05-15T05:04:27.582Z,15.70
2023-05-15T05:05:29.211Z,15.70
2023-05-15T05:06:31.086Z,15.70
2023-05-15T05:07:33.009Z,15.80
2023-05-15T05:08:34.654Z,15.70
2023-05-15T05:09:36.316Z,15.80
2023-05-15T05:10:37.974Z,15.80
2023-05-15T05:11:43.749Z,15.80
2023-05-15T05:12:45.517Z,15.80
2023-05-15T05:14:49.601Z,15.80
2023-05-15T05:15:51.376Z,15.80
2023-05-15T05:16:56.988Z,15.90
2023-05-15T05:17:58.833Z,15.90
2023-05-15T05:19:01.124Z,16.00
2023-05-15T05:20:02.964Z,16.00
2023-05-15T05:21:04.739Z,16.00
2023-05-15T05:22:07.663Z,16.00
2023-05-15T05:23:09.497Z,16.10
2023-05-15T05:24:11.764Z,16.10
2023-05-15T05:25:13.766Z,16.20
2023-05-15T05:26:15.890Z,16.20
2023-05-15T05:27:17.562Z,16.30
2023-05-15T05:28:21.022Z,16.30
2023-05-15T05:29:22.681Z,16.30
2023-05-15T05:30:24.549Z,16.30
2023-05-15T05:31:26.667Z,16.30
2023-05-15T05:32:28.396Z,16.40
2023-05-15T05:33:30.097Z,16.40
2023-05-15T05:34:31.753Z,16.50
2023-05-15T05:35:33.625Z,16.50
2023-05-15T05:36:37.462Z,16.50
2023-05-15T05:37:41.262Z,16.50
2023-05-15T05:38:43.938Z,16.50
2023-05-15T05:39:46.987Z,16.50
2023-05-15T05:40:48.742Z,16.50
2023-05-15T05:41:50.564Z,16.50
2023-05-15T05:42:52.674Z,16.50
2023-05-15T05:43:56.136Z,16.50
2023-05-15T05:44:58.018Z,16.60
2023-05-15T05:45:59.813Z,16.60
2023-05-15T05:47:02.220Z,16.60
2023-05-15T05:48:04.176Z,16.60
2023-05-15T05:49:06.200Z,16.60
2023-05-15T05:50:08.449Z,16.70
2023-05-15T05:51:10.599Z,16.80
2023-05-15T05:52:14.251Z,16.90
2023-05-15T05:53:16.407Z,16.80
2023-05-15T05:54:18.947Z,16.90
2023-05-15T05:55:20.696Z,17.00
2023-05-15T05:56:22.894Z,17.10
2023-05-15T05:57:24.565Z,17.10
2023-05-15T05:58:26.812Z,17.20
2023-05-15T05:59:29.786Z,17.20
2023-05-15T06:00:32.651Z,17.30
2023-05-15T06:01:34.718Z,17.30
2023-05-15T06:02:38.257Z,17.40
2023-05-15T06:03:43.259Z,17.30
2023-05-15T06:04:46.196Z,17.40
2023-05-15T06:05:48.809Z,17.30
2023-05-15T06:06:50.482Z,17.30
2023-05-15T06:07:52.973Z,17.40
2023-05-15T06:08:56.526Z,17.40
2023-05-15T06:09:58.409Z,17.40
2023-05-15T06:11:00.197Z,17.40
2023-05-15T06:12:04.614Z,17.50
2023-05-15T06:13:06.880Z,17.50
2023-05-15T06:14:08.616Z,17.50
2023-05-15T06:15:10.842Z,17.50
2023-05-15T06:16:12.624Z,17.50
2023-05-15T06:17:15.053Z,17.50
2023-05-15T06:18:16.958Z,17.50
2023-05-15T06:19:18.841Z,17.50
2023-05-15T06:20:20.757Z,17.50
2023-05-15T06:21:23.636Z,17.50
2023-05-15T06:22:25.599Z,17.60
2023-05-15T06:23:27.678Z,17.60
2023-05-15T06:24:29.424Z,17.70
2023-05-15T06:25:31.442Z,17.60
2023-05-15T06:26:33.290Z,17.60
2023-05-15T06:27:35.703Z,17.60
2023-05-15T06:28:37.447Z,17.50
2023-05-15T06:29:39.152Z,17.50
2023-05-15T06:30:40.959Z,17.50
2023-05-15T06:31:42.826Z,17.50
2023-05-15T06:32:44.700Z,17.60
2023-05-15T06:33:46.431Z,17.60
2023-05-15T06:34:48.313Z,17.50
2023-05-15T06:35:50.158Z,17.50
2023-05-15T06:36:52.619Z,17.50
2023-05-15T06:37:55.423Z,17.40
2023-05-15T06:38:58.248Z,17.40
2023-05-15T06:40:00.266Z,17.30
2023-05-15T06:41:02.026Z,17.40
2023-05-15T06:42:04.156Z,17.50
2023-05-15T06:43:06.167Z,17.30
2023-05-15T06:44:07.854Z,17.30
2023-05-15T06:45:10.426Z,17.30
2023-05-15T06:46:12.190Z,17.20
2023-05-15T06:47:13.932Z,17.10
2023-05-15T06:48:15.907Z,17.10
2023-05-15T06:49:17.758Z,17.00
2023-05-15T06:50:19.755Z,17.00
2023-05-15T06:51:21.555Z,17.00
2023-05-15T06:52:23.570Z,16.90
2023-05-15T06:53:25.378Z,16.90
2023-05-15T06:54:27.123Z,16.90
2023-05-15T06:55:29.096Z,16.90
2023-05-15T06:56:30.851Z,16.90
2023-05-15T06:57:34.181Z,17.20
2023-05-15T06:58:35.933Z,17.00
2023-05-15T06:59:38.317Z,17.00
2023-05-15T07:00:40.274Z,17.00
2023-05-15T07:01:42.014Z,17.10
2023-05-15T07:02:43.956Z,17.10
2023-05-15T07:03:48.308Z,17.20
2023-05-15T07:04:50.171Z,17.20
2023-05-15T07:05:53.434Z,17.30
2023-05-15T07:06:55.162Z,17.40
2023-05-15T07:07:56.883Z,17.40
2023-05-15T07:08:59.586Z,17.50
2023-05-15T07:10:01.267Z,17.50
2023-05-15T07:11:03.090Z,17.50
2023-05-15T07:12:05.160Z,17.50
2023-05-15T07:13:06.848Z,17.60
2023-05-15T07:14:08.546Z,17.60
2023-05-15T07:15:10.668Z,17.60
2023-05-15T07:16:12.501Z,17.70
2023-05-15T07:17:14.201Z,17.80
2023-05-15T07:18:15.997Z,17.80
2023-05-15T07:19:21.063Z,17.90
2023-05-15T07:20:23.086Z,17.90
2023-05-15T07:21:25.396Z,18.00
2023-05-15T07:22:28.368Z,18.00
2023-05-15T07:23:30.035Z,18.10
2023-05-15T07:24:31.907Z,18.10
2023-05-15T07:25:36.206Z,18.20
2023-05-15T07:26:50.246Z,18.20
2023-05-15T07:27:59.601Z,18.20
2023-05-15T07:29:01.318Z,18.30
2023-05-15T07:30:06.743Z,18.30
2023-05-15T07:31:08.655Z,18.30
2023-05-15T07:32:10.467Z,18.30
2023-05-15T07:33:12.410Z,18.30
2023-05-15T07:34:14.127Z,18.30
2023-05-15T07:35:16.147Z,18.30
2023-05-15T07:36:17.809Z,18.30
2023-05-15T07:37:20.643Z,18.30
2023-05-15T07:38:22.352Z,18.30
2023-05-15T07:39:24.076Z,18.30
2023-05-15T07:40:25.743Z,18.30
2023-05-15T07:41:27.408Z,18.30
2023-05-15T07:42:29.090Z,18.30
2023-05-15T07:43:30.924Z,18.40
2023-05-15T07:44:34.126Z,18.40
2023-05-15T07:45:36.248Z,18.40
2023-05-15T07:46:39.079Z,18.50
2023-05-15T07:47:47.234Z,18.50
2023-05-15T07:48:49.341Z,18.60
2023-05-15T07:49:50.987Z,18.60
2023-05-15T07:50:54.078Z,18.70
2023-05-15T07:51:56.115Z,18.70
2023-05-15T07:52:57.805Z,18.70
2023-05-15T07:53:59.928Z,18.70
2023-05-15T07:55:01.836Z,18.60
2023-05-15T07:56:03.694Z,18.60
2023-05-15T07:57:05.622Z,18.70
2023-05-15T07:58:08.210Z,18.70
2023-05-15T07:59:09.956Z,18.70
2023-05-15T08:00:13.609Z,18.80
2023-05-15T08:01:16.055Z,18.80
2023-05-15T08:02:18.194Z,18.90
2023-05-15T08:03:20.024Z,18.90
2023-05-15T08:04:21.990Z,18.90
2023-05-15T08:05:24.072Z,18.90
2023-05-15T08:06:26.218Z,18.90
2023-05-15T08:07:27.898Z,18.90
2023-05-15T08:08:29.842Z,19.00
2023-05-15T08:09:31.885Z,19.00
2023-05-15T08:10:33.573Z,19.00
2023-05-15T08:11:36.219Z,19.10
2023-05-15T08:12:38.054Z,19.10
2023-05-15T08:13:39.721Z,19.30
2023-05-15T08:14:43.023Z,19.20
2023-05-15T08:15:45.278Z,19.20
2023-05-15T08:16:47.122Z,19.30
2023-05-15T08:17:49.031Z,19.30
2023-05-15T08:18:53.518Z,19.30
2023-05-15T08:19:56.245Z,19.30
2023-05-15T08:20:57.934Z,19.50
2023-05-15T08:21:59.595Z,19.30
2023-05-15T08:23:03.627Z,19.40
2023-05-15T08:24:05.681Z,19.40
2023-05-15T08:25:09.527Z,19.40
2023-05-15T08:26:13.287Z,19.40
2023-05-15T08:27:15.017Z,19.40
2023-05-15T08:28:17.154Z,19.40
2023-05-15T08:29:18.866Z,19.50
2023-05-15T08:30:21.108Z,19.50
2023-05-15T08:31:22.889Z,19.50
2023-05-15T08:32:24.711Z,19.60
2023-05-15T08:33:26.511Z,19.70
2023-05-15T08:34:29.804Z,19.70
2023-05-15T08:35:32.009Z,19.60
2023-05-15T08:36:33.771Z,19.60
2023-05-15T08:37:35.476Z,19.60
2023-05-15T08:38:37.110Z,19.60
2023-05-15T08:39:38.823Z,19.60
2023-05-15T08:40:43.652Z,19.60
2023-05-15T08:42:05.081Z,19.70
2023-05-15T08:43:15.903Z,19.60
2023-05-15T08:44:17.976Z,19.60
2023-05-15T08:45:20.597Z,19.60
2023-05-15T08:46:23.431Z,19.70
2023-05-15T08:47:31.668Z,19.50
2023-05-15T08:48:37.985Z,19.50
2023-05-15T08:49:54.192Z,19.50
2023-05-15T08:50:58.557Z,19.40
2023-05-15T08:52:01.023Z,19.40
2023-05-15T08:53:03.552Z,19.40
2023-05-15T08:54:05.528Z,19.30
2023-05-15T08:55:08.090Z,19.50
2023-05-15T08:56:09.803Z,19.50
2023-05-15T08:57:11.551Z,19.50
2023-05-15T08:58:14.034Z,19.60
2023-05-15T08:59:15.846Z,19.70
2023-05-15T09:00:20.217Z,19.70
2023-05-15T09:01:22.508Z,19.80
2023-05-15T09:02:26.189Z,19.80
2023-05-15T09:03:28.522Z,19.80
2023-05-15T09:04:30.243Z,19.90
2023-05-15T09:05:32.340Z,19.90
2023-05-15T09:06:34.703Z,19.90
2023-05-15T09:07:38.687Z,20.00
2023-05-15T09:08:41.473Z,20.00
2023-05-15T09:09:45.005Z,20.10
2023-05-15T09:10:47.259Z,20.20
2023-05-15T09:11:50.662Z,20.20
2023-05-15T09:12:53.440Z,20.20
2023-05-15T09:13:59.513Z,20.30
2023-05-15T09:15:12.233Z,20.30
2023-05-15T09:16:15.481Z,20.30
2023-05-15T09:17:17.313Z,20.20
2023-05-15T09:18:19.470Z,20.20
2023-05-15T09:19:22.495Z,20.20
2023-05-15T09:20:31.537Z,20.10
2023-05-15T09:21:34.209Z,20.10
2023-05-15T09:22:36.555Z,20.10
2023-05-15T09:23:38.218Z,20.00
2023-05-15T09:24:40.084Z,20.00
2023-05-15T09:25:44.680Z,20.10
2023-05-15T09:26:47.876Z,20.10
2023-05-15T09:27:49.657Z,20.30
2023-05-15T09:28:53.076Z,20.20
2023-05-15T09:29:56.543Z,20.20
2023-05-15T09:31:05.667Z,20.20
2023-05-15T09:32:11.598Z,20.20
2023-05-15T09:33:16.648Z,20.20
2023-05-15T09:34:18.428Z,20.20
2023-05-15T09:35:34.185Z,20.10
2023-05-15T09:36:36.869Z,20.00
2023-05-15T09:37:38.678Z,19.90
2023-05-15T09:38:42.555Z,19.80
2023-05-15T09:39:45.049Z,19.80
2023-05-15T09:40:46.826Z,19.70
2023-05-15T09:41:48.809Z,19.70
2023-05-15T09:42:53.475Z,19.80
2023-05-15T09:43:56.921Z,19.80
2023-05-15T09:44:58.631Z,19.90
2023-05-15T09:46:00.648Z,20.00
2023-05-15T09:47:05.498Z,20.00
2023-05-15T09:48:08.408Z,20.00
2023-05-15T09:49:10.453Z,20.00
2023-05-15T09:50:12.246Z,20.00
2023-05-15T09:51:18.496Z,20.10
2023-05-15T09:52:20.521Z,20.00
2023-05-15T09:53:23.621Z,20.00
2023-05-15T09:54:27.390Z,20.10
2023-05-15T09:55:34.977Z,20.20
2023-05-15T09:56:37.056Z,20.20
2023-05-15T09:57:38.964Z,20.30
2023-05-15T09:58:54.405Z,20.40
2023-05-15T10:00:00.671Z,20.40
2023-05-15T10:01:03.225Z,20.40
2023-05-15T10:02:06.095Z,20.50
2023-05-15T10:03:09.445Z,20.50
2023-05-15T10:04:13.894Z,20.70
2023-05-15T10:05:16.549Z,20.50
2023-05-15T10:06:19.407Z,20.50
2023-05-15T10:07:36.801Z,20.50
2023-05-15T10:08:40.810Z,20.50
2023-05-15T10:09:42.633Z,20.60
2023-05-15T10:10:46.360Z,20.60
2023-05-15T10:11:53.932Z,20.70
2023-05-15T10:13:07.016Z,20.70
2023-05-15T10:14:10.604Z,20.80
2023-05-15T10:15:17.002Z,20.80
2023-05-15T10:16:22.678Z,21.00
2023-05-15T10:17:25.559Z,20.80
2023-05-15T10:18:30.435Z,20.80
2023-05-15T10:19:32.672Z,20.80
2023-05-15T10:20:37.421Z,20.80
2023-05-15T10:21:41.653Z,20.90
2023-05-15T10:22:46.773Z,20.80
2023-05-15T10:23:51.017Z,20.70
2023-05-15T10:25:25.515Z,20.70
2023-05-15T10:26:40.418Z,20.70
2023-05-15T10:27:43.579Z,20.70
2023-05-15T10:28:46.578Z,20.70
2023-05-15T10:29:51.347Z,20.60
2023-05-15T10:30:54.914Z,20.60
2023-05-15T10:31:58.735Z,20.70
2023-05-15T10:33:01.033Z,20.70
2023-05-15T10:34:06.667Z,20.80
2023-05-15T10:35:10.941Z,20.80
2023-05-15T10:36:14.767Z,20.90
2023-05-15T10:37:18.359Z,21.00
2023-05-15T10:38:22.001Z,21.00
2023-05-15T10:39:24.458Z,21.10
2023-05-15T10:40:28.311Z,21.20
2023-05-15T10:41:32.990Z,21.30
2023-05-15T10:42:36.922Z,21.30
2023-05-15T10:43:41.533Z,21.40
2023-05-15T10:44:43.410Z,21.50
2023-05-15T10:45:45.703Z,21.50
2023-05-15T10:46:48.089Z,21.60
2023-05-15T10:47:51.036Z,21.60
2023-05-15T10:48:53.246Z,21.70
2023-05-15T10:49:55.125Z,21.80
2023-05-15T10:51:01.367Z,21.80
2023-05-15T10:52:03.563Z,21.80
2023-05-15T10:53:06.009Z,21.80
2023-05-15T10:54:09.675Z,21.80
2023-05-15T10:55:16.268Z,21.90
2023-05-15T10:56:18.417Z,21.90
2023-05-15T10:57:23.053Z,21.90
2023-05-15T10:58:25.028Z,21.90
2023-05-15T10:59:34.820Z,21.90
2023-05-15T11:00:44.399Z,22.00
2023-05-15T11:01:46.318Z,22.00
2023-05-15T11:02:48.721Z,22.00
2023-05-15T11:03:53.223Z,22.10
2023-05-15T11:04:57.902Z,22.10
2023-05-15T11:06:13.929Z,22.10
2023-05-15T11:07:18.063Z,22.20
2023-05-15T11:08:21.650Z,22.20
2023-05-15T11:09:29.190Z,22.20
2023-05-15T11:10:30.839Z,22.20
2023-05-15T11:12:00.874Z,22.20
2023-05-15T11:13:02.966Z,22.10
2023-05-15T11:14:10.389Z,22.30
2023-05-15T11:15:14.781Z,22.10
2023-05-15T11:17:04.611Z,22.20
2023-05-15T11:18:07.620Z,22.10
2023-05-15T11:19:22.659Z,22.10
2023-05-15T11:20:35.055Z,22.00
2023-05-15T11:21:46.430Z,22.00
2023-05-15T11:22:59.380Z,21.90
2023-05-15T11:24:05.175Z,21.90
2023-05-15T11:25:09.263Z,21.80
2023-05-15T11:26:13.675Z,21.80
2023-05-15T11:27:42.373Z,21.90
2023-05-15T11:28:44.593Z,21.90
2023-05-15T11:30:13.007Z,22.00
2023-05-15T11:31:15.767Z,22.00
2023-05-15T11:32:46.668Z,22.10
2023-05-15T11:33:52.408Z,22.20
2023-05-15T11:35:01.099Z,22.20
2023-05-15T11:36:05.780Z,22.20
2023-05-15T11:37:17.393Z,22.10
2023-05-15T11:38:25.841Z,22.10
2023-05-15T11:39:28.662Z,22.00
2023-05-15T11:40:44.486Z,22.00
2023-05-15T11:41:46.203Z,22.00
2023-05-15T11:43:07.259Z,22.00
2023-05-15T11:44:09.392Z,21.90
2023-05-15T11:45:11.737Z,21.90
2023-05-15T11:46:16.655Z,22.10
2023-05-15T11:47:18.409Z,22.20
2023-05-15T11:48:20.767Z,22.10
2023-05-15T11:49:24.654Z,22.10
2023-05-15T11:50:27.627Z,22.20
2023-05-15T11:51:30.162Z,22.20
2023-05-15T11:52:32.563Z,22.20
2023-05-15T11:53:35.346Z,22.10
2023-05-15T11:54:37.226Z,22.10
2023-05-15T11:55:41.665Z,22.10
2023-05-15T11:56:46.488Z,22.10
2023-05-15T11:57:48.180Z,22.10
2023-05-15T11:59:00.335Z,22.10
2023-05-15T12:00:02.063Z,22.20
2023-05-15T12:01:04.173Z,22.30
2023-05-15T12:02:06.508Z,22.30
2023-05-15T12:03:14.696Z,22.40
2023-05-15T12:04:18.170Z,22.50
2023-05-15T12:05:20.121Z,22.50
2023-05-15T12:06:22.462Z,22.60
2023-05-15T12:07:24.170Z,22.70
2023-05-15T12:08:26.714Z,22.80
2023-05-15T12:09:29.102Z,23.00
2023-05-15T12:10:31.214Z,22.80
2023-05-15T12:11:33.596Z,22.90
2023-05-15T12:12:37.342Z,22.90
2023-05-15T12:13:40.442Z,23.00
2023-05-15T12:14:42.219Z,23.00
2023-05-15T12:15:46.846Z,23.00
2023-05-15T12:16:53.550Z,23.00
2023-05-15T12:17:55.328Z,23.00
2023-05-15T12:18:57.929Z,23.00
2023-05-15T12:20:00.851Z,23.00
2023-05-15T12:21:04.795Z,23.00
2023-05-15T12:22:08.389Z,23.10
2023-05-15T12:23:10.050Z,23.20
2023-05-15T12:24:12.955Z,23.30
2023-05-15T12:25:15.570Z,23.40
2023-05-15T12:26:17.474Z,23.50
2023-05-15T12:27:19.470Z,23.50
2023-05-15T12:28:21.458Z,23.60
2023-05-15T12:29:23.388Z,23.60
2023-05-15T12:30:25.547Z,23.60
2023-05-15T12:31:29.787Z,23.50
2023-05-15T12:32:34.789Z,23.50
2023-05-15T12:33:36.652Z,23.40
2023-05-15T12:34:38.518Z,23.30
2023-05-15T12:35:45.023Z,23.20
2023-05-15T12:36:47.110Z,23.30
2023-05-15T12:37:49.760Z,23.10
2023-05-15T12:38:51.634Z,23.10
2023-05-15T12:39:59.972Z,23.00
2023-05-15T12:41:01.763Z,23.00
2023-05-15T12:42:04.177Z,23.10
2023-05-15T12:43:07.435Z,23.20
2023-05-15T12:44:19.306Z,23.20
2023-05-15T12:45:23.013Z,23.20
2023-05-15T12:46:31.739Z,23.10
2023-05-15T12:47:33.697Z,23.10
2023-05-15T12:48:36.936Z,23.10
2023-05-15T12:49:41.093Z,22.90
2023-05-15T12:50:45.202Z,22.90
2023-05-15T12:51:46.991Z,22.80
2023-05-15T12:52:52.511Z,22.70
2023-05-15T12:53:54.899Z,22.60
2023-05-15T12:55:00.606Z,22.50
2023-05-15T12:56:02.584Z,22.40
2023-05-15T12:57:04.473Z,22.50
2023-05-15T12:58:08.928Z,22.20
2023-05-15T12:59:11.817Z,22.20
2023-05-15T13:00:15.024Z,22.30
2023-05-15T13:01:17.905Z,22.50
2023-05-15T13:02:23.113Z,22.60
2023-05-15T13:03:28.682Z,22.70
2023-05-15T13:04:33.379Z,22.90
2023-05-15T13:05:36.450Z,22.90
2023-05-15T13:06:46.450Z,22.90
2023-05-15T13:07:49.593Z,22.80
2023-05-15T13:08:51.462Z,22.80
2023-05-15T13:10:06.999Z,22.70
2023-05-15T13:11:13.983Z,22.70
2023-05-15T13:12:19.506Z,22.60
2023-05-15T13:13:21.482Z,22.60
2023-05-15T13:14:27.177Z,22.60
2023-05-15T13:15:37.600Z,22.60
2023-05-15T13:16:42.714Z,22.50
2023-05-15T13:17:45.843Z,22.40
2023-05-15T13:18:47.983Z,22.30
2023-05-15T13:19:49.889Z,22.30
2023-05-15T13:20:51.774Z,22.20
2023-05-15T13:21:53.928Z,22.20
2023-05-15T13:22:55.927Z,22.20
2023-05-15T13:23:57.613Z,22.00
2023-05-15T13:24:59.356Z,22.10
2023-05-15T13:26:01.025Z,22.00
2023-05-15T13:27:02.777Z,22.00
2023-05-15T13:28:06.342Z,22.00
2023-05-15T13:29:09.445Z,22.00
2023-05-15T13:30:11.634Z,22.00
2023-05-15T13:31:13.613Z,21.90
2023-05-15T13:32:15.406Z,22.00
2023-05-15T13:33:18.694Z,21.90
2023-05-15T13:34:21.525Z,22.00
2023-05-15T13:35:23.710Z,22.20
2023-05-15T13:36:25.825Z,22.30
2023-05-15T13:37:27.858Z,22.30
2023-05-15T13:38:30.902Z,22.40
2023-05-15T13:39:32.611Z,22.30
2023-05-15T13:40:38.400Z,22.30
2023-05-15T13:41:40.213Z,22.20
2023-05-15T13:42:43.430Z,22.20
2023-05-15T13:43:45.139Z,22.10
2023-05-15T13:44:47.742Z,22.10